Time;durP1;ratioP1;P1;durP2;ratioP2;P2;SDS_P1;SDS_P2;PMS_P1;PMS_P2;Temp;Humidity;BMP_temperature;BMP_pressure;BME280_temperature;BME280_humidity;BME280_pressure;Samples;Min_cycle;Max_cycle;Signal;HPM_P1;HPM_P2
2022/04/03 00:00:46;;;;;;;9.70;3.15;;;;;;;10.15;50.05;93848.50;5050588;28;20063;-78
2022/04/03 00:03:12;;;;;;;6.90;3.05;;;;;;;10.06;50.16;93839.59;5050282;28;20056;-77
2022/04/03 00:05:38;;;;;;;2.03;1.70;;;;;;;9.90;49.95;93845.75;5033540;28;20021;-77
2022/04/03 00:08:10;;;;;;;2.60;1.85;;;;;;;9.74;50.17;93842.25;5049115;28;20416;-77
2022/04/03 00:10:35;;;;;;;1.50;1.40;;;;;;;9.53;51.00;93846.53;5031856;28;20033;-77
2022/04/03 00:13:01;;;;;;;2.22;2.13;;;;;;;9.33;52.20;93836.78;5049140;28;20035;-77
2022/04/03 00:15:26;;;;;;;2.22;2.00;;;;;;;9.24;52.29;93842.66;5049629;28;20086;-77
2022/04/03 00:17:52;;;;;;;7.70;2.38;;;;;;;9.14;52.55;93845.19;5016193;28;20119;-77
2022/04/03 00:20:19;;;;;;;4.53;2.33;;;;;;;9.05;53.99;93846.66;5032785;28;20037;-77
2022/04/03 00:22:48;;;;;;;4.72;2.00;;;;;;;8.95;54.84;93850.72;5032524;28;20112;-77
2022/04/03 00:25:18;;;;;;;4.50;1.70;;;;;;;8.93;55.03;93852.75;5050376;28;20102;-77
2022/04/03 00:27:46;;;;;;;3.72;2.20;;;;;;;8.92;54.96;93846.00;5033673;28;20446;-77
2022/04/03 00:30:12;;;;;;;2.78;2.13;;;;;;;8.94;54.96;93849.13;5033025;28;20076;-77
2022/04/03 00:32:37;;;;;;;3.85;2.30;;;;;;;8.93;54.43;93826.81;5035540;28;20039;-77
2022/04/03 00:35:04;;;;;;;3.92;2.63;;;;;;;8.98;54.92;93841.66;5051778;28;20036;-77
2022/04/03 00:37:29;;;;;;;3.40;2.50;;;;;;;8.99;55.09;93841.44;5034891;28;20033;-77
2022/04/03 00:39:55;;;;;;;2.42;2.22;;;;;;;8.99;55.45;93833.66;5035329;28;20027;-76
2022/04/03 00:42:20;;;;;;;2.05;1.95;;;;;;;8.98;55.85;93839.88;5035724;28;20041;-78
2022/04/03 00:44:46;;;;;;;4.20;3.65;;;;;;;8.90;55.79;93842.88;5019257;28;20048;-78
2022/04/03 00:47:12;;;;;;;5.05;2.88;;;;;;;8.96;56.04;93846.31;5053849;28;20036;-78
2022/04/03 00:49:38;;;;;;;2.72;2.47;;;;;;;8.92;56.32;93846.00;5052194;28;20504;-78
2022/04/03 00:52:04;;;;;;;6.65;3.05;;;;;;;8.87;56.72;93851.16;5019118;28;20036;-78
2022/04/03 00:54:29;;;;;;;3.78;2.90;;;;;;;8.95;56.20;93855.91;5053398;28;20116;-77
2022/04/03 00:56:55;;;;;;;3.25;2.95;;;;;;;9.06;56.14;93861.19;5053428;28;20484;-77
2022/04/03 00:59:20;;;;;;;7.90;3.25;;;;;;;9.16;55.99;93876.84;5051626;28;20119;-77
2022/04/03 01:01:46;;;;;;;5.00;2.50;;;;;;;9.09;49.75;93876.25;5052717;28;20028;-77
2022/04/03 01:04:12;;;;;;;6.22;2.20;;;;;;;8.97;48.43;93869.41;5018571;28;20501;-77
2022/04/03 01:06:37;;;;;;;3.83;1.75;;;;;;;8.88;48.09;93865.69;5053828;28;20041;-77
2022/04/03 01:09:03;;;;;;;10.57;2.45;;;;;;;8.84;48.66;93877.56;5034397;28;20039;-77
2022/04/03 01:11:28;;;;;;;5.55;2.40;;;;;;;8.85;48.05;93871.34;5034809;28;20037;-77
2022/04/03 01:13:54;;;;;;;2.80;1.95;;;;;;;8.85;47.84;93866.16;5034781;28;20033;-78
2022/04/03 01:16:20;;;;;;;4.32;3.25;;;;;;;8.86;48.86;93864.34;5034687;28;20041;-77
2022/04/03 01:18:45;;;;;;;5.32;1.90;;;;;;;8.82;48.27;93871.06;5052266;28;20065;-77
2022/04/03 01:21:11;;;;;;;2.42;2.22;;;;;;;8.74;48.92;93869.66;5035436;28;20060;-77
2022/04/03 01:23:37;;;;;;;3.92;2.13;;;;;;;8.71;50.10;93870.94;5052973;28;20045;-77
2022/04/03 01:26:03;;;;;;;5.60;1.80;;;;;;;8.69;49.21;93862.63;5020055;28;20478;-78
2022/04/03 01:28:29;;;;;;;1.85;1.70;;;;;;;8.67;49.29;93867.28;5053102;28;20040;-77
2022/04/03 01:30:54;;;;;;;2.90;2.00;;;;;;;8.71;49.63;93859.78;5036102;28;20113;-77
2022/04/03 01:33:20;;;;;;;2.17;1.83;;;;;;;8.66;49.36;93854.56;5053242;28;20020;-77
2022/04/03 01:35:46;;;;;;;8.57;1.77;;;;;;;8.62;49.81;93856.06;5052524;28;20032;-77
2022/04/03 01:38:11;;;;;;;3.85;2.28;;;;;;;8.52;50.30;93861.91;5018857;28;20041;-77
2022/04/03 01:40:37;;;;;;;2.30;2.10;;;;;;;8.45;50.65;93873.47;5053003;28;20048;-76
2022/04/03 01:43:08;;;;;;;3.13;1.80;;;;;;;8.35;51.05;93876.75;5050340;28;20033;-77
2022/04/03 01:45:37;;;;;;;5.07;2.13;;;;;;;8.25;51.40;93861.81;5034953;28;20029;-76
2022/04/03 01:48:03;;;;;;;2.08;1.88;;;;;;;8.21;51.80;93865.91;5051193;28;20671;-76
2022/04/03 01:50:28;;;;;;;4.47;2.05;;;;;;;8.01;52.22;93861.25;5050696;28;20112;-76
2022/04/03 01:52:54;;;;;;;3.72;2.08;;;;;;;7.89;52.57;93857.97;5014093;28;20543;-77
2022/04/03 01:55:20;;;;;;;3.78;1.85;;;;;;;7.82;53.18;93857.38;5015155;28;20389;-77
2022/04/03 01:57:45;;;;;;;1.85;1.73;;;;;;;7.81;52.81;93851.44;5014747;28;20117;-77
2022/04/03 02:00:11;;;;;;;6.05;2.03;;;;;;;7.82;52.99;93845.22;5014508;28;20037;-77
2022/04/03 02:02:37;;;;;;;2.33;1.80;;;;;;;7.72;53.35;93841.69;5014343;28;20037;-77
2022/04/03 02:05:04;;;;;;;3.55;2.30;;;;;;;7.57;53.84;93842.25;5014649;28;20033;-77
2022/04/03 02:07:31;;;;;;;4.43;2.05;;;;;;;7.40;54.13;93844.06;5031892;28;20484;-77
2022/04/03 02:09:56;;;;;;;4.72;2.03;;;;;;;7.25;54.69;93838.66;5030514;28;20032;-76
2022/04/03 02:12:22;;;;;;;2.88;2.10;;;;;;;7.06;55.29;93838.09;5030604;28;20041;-77
2022/04/03 02:14:47;;;;;;;4.90;2.08;;;;;;;6.96;55.59;93832.75;5031887;28;20034;-77
2022/04/03 02:17:13;;;;;;;2.28;2.08;;;;;;;6.77;56.50;93834.75;5031858;28;20452;-77
2022/04/03 02:19:38;;;;;;;3.88;1.98;;;;;;;6.70;56.65;93827.16;5047776;28;20029;-77
2022/04/03 02:22:04;;;;;;;1.60;1.50;;;;;;;6.70;56.49;93834.91;5051802;28;20036;-76
2022/04/03 02:24:29;;;;;;;1.83;1.73;;;;;;;6.59;56.82;93826.19;5050179;28;20037;-77
2022/04/03 02:26:55;;;;;;;3.45;2.10;;;;;;;6.58;56.55;93829.78;5050186;28;20497;-77
2022/04/03 02:29:20;;;;;;;4.80;2.22;;;;;;;6.59;57.09;93812.47;5049924;28;20032;-77
2022/04/03 02:31:46;;;;;;;2.30;2.05;;;;;;;6.49;57.51;93820.81;5050062;28;20040;-77
2022/04/03 02:34:11;;;;;;;4.38;2.40;;;;;;;6.50;58.15;93824.97;5033460;28;20033;-78
2022/04/03 02:36:40;;;;;;;3.45;2.10;;;;;;;6.60;57.63;93839.88;5050430;28;20036;-78
2022/04/03 02:39:06;;;;;;;2.40;1.80;;;;;;;6.66;57.67;93849.28;5051338;28;20032;-77
2022/04/03 02:41:32;;;;;;;4.38;2.20;;;;;;;6.76;57.40;93853.84;5050022;28;20119;-78
2022/04/03 02:43:57;;;;;;;3.47;2.20;;;;;;;6.84;57.06;93856.88;5029314;28;20033;-78
2022/04/03 02:46:23;;;;;;;13.63;4.45;;;;;;;6.98;56.79;93857.34;5045724;28;20036;-78
2022/04/03 02:48:48;;;;;;;5.82;2.63;;;;;;;7.11;56.56;93854.47;5049800;28;20033;-77
2022/04/03 02:51:17;;;;;;;2.42;1.73;;;;;;;7.21;56.19;93859.81;5051261;28;20025;-78
2022/04/03 02:53:43;;;;;;;3.00;2.05;;;;;;;7.33;56.37;93858.97;5055068;28;20088;-78
2022/04/03 02:56:08;;;;;;;2.55;2.00;;;;;;;7.40;56.22;93850.03;5053987;28;20060;-78
2022/04/03 02:58:34;;;;;;;3.70;1.92;;;;;;;7.55;55.66;93852.06;5050911;28;20037;-77
2022/04/03 03:00:59;;;;;;;3.13;2.17;;;;;;;7.66;55.48;93848.63;5050068;28;20044;-77
2022/04/03 03:03:25;;;;;;;2.90;2.42;;;;;;;7.79;55.39;93853.44;5033746;28;20563;-77
2022/04/03 03:05:50;;;;;;;3.35;3.08;;;;;;;7.87;55.09;93856.66;5052009;28;20420;-78
2022/04/03 03:08:16;;;;;;;4.57;3.35;;;;;;;7.91;55.10;93855.16;5036235;28;20037;-78
2022/04/03 03:10:42;;;;;;;7.25;3.17;;;;;;;8.01;54.96;93857.91;5050729;28;20041;-78
2022/04/03 03:13:08;;;;;;;5.00;3.10;;;;;;;8.07;55.01;93860.31;5034528;28;20107;-77
2022/04/03 03:15:34;;;;;;;8.88;3.22;;;;;;;8.15;54.19;93851.34;5033369;28;20582;-78
2022/04/03 03:17:59;;;;;;;3.58;2.60;;;;;;;8.19;54.58;93862.00;5032836;28;20070;-78
2022/04/03 03:20:25;;;;;;;6.90;3.53;;;;;;;8.30;53.86;93863.72;5032997;28;20064;-78
2022/04/03 03:22:50;;;;;;;3.35;2.58;;;;;;;8.41;54.07;93871.38;5050814;28;20028;-78
2022/04/03 03:44:38;;;;;;;3.35;3.03;;;;;;;8.17;53.57;93888.16;5027675;28;20037;-84
2022/04/03 03:47:35;;;;;;;3.90;3.13;;;;;;;8.09;53.67;93894.50;5026712;28;20112;-83
2022/04/03 04:01:17;;;;;;;6.85;3.20;;;;;;;7.75;54.72;93904.13;4919227;29;20140;-82
2022/04/03 04:15:36;;;;;;;;;;;;;;;;;;;;;
2022/04/03 04:21:51;;;;;;;4.65;3.00;;;;;;;7.76;53.89;93947.09;4954560;29;20103;-82
2022/04/03 05:01:19;;;;;;;5.90;2.80;;;;;;;15.13;36.42;93973.19;4953392;29;20593;-83
2022/04/03 05:18:34;;;;;;;2.13;1.88;;;;;;;16.34;33.20;94001.44;5009737;28;19941;-83
2022/04/03 05:21:14;;;;;;;3.70;1.73;;;;;;;16.25;32.68;94001.31;5009655;28;20046;-82
2022/04/03 05:35:18;;;;;;;1.90;1.67;;;;;;;19.62;27.47;94011.38;4894650;29;20056;-86
2022/04/03 05:37:44;;;;;;;3.38;2.08;;;;;;;21.46;25.38;94013.16;4983899;28;20051;-86
2022/04/03 05:40:15;;;;;;;3.92;3.08;;;;;;;22.42;23.79;94000.06;4957166;28;20114;-83
2022/04/03 05:43:00;;;;;;;5.22;3.60;;;;;;;23.45;21.85;94013.34;4989049;28;20043;-83
2022/04/03 05:45:37;;;;;;;11.27;2.03;;;;;;;23.47;22.09;94016.44;4975461;28;20202;-85
2022/04/03 05:48:07;;;;;;;6.78;5.10;;;;;;;23.21;22.21;94009.56;5072742;28;20053;-84
2022/04/03 05:50:33;;;;;;;12.10;5.40;;;;;;;23.03;22.56;94016.94;5063370;28;20065;-86
2022/04/03 05:52:58;;;;;;;5.32;4.28;;;;;;;22.82;21.98;94013.59;5034817;28;20063;-82
2022/04/03 05:55:25;;;;;;;2.63;1.42;;;;;;;22.48;22.29;94022.63;5069915;28;20037;-82
2022/04/03 05:57:52;;;;;;;2.42;1.55;;;;;;;22.20;22.86;94026.91;5068661;28;20040;-85
2022/04/03 06:00:19;;;;;;;2.33;1.73;;;;;;;22.08;23.04;94020.44;5066114;28;20056;-83
2022/04/03 06:02:54;;;;;;;4.05;2.00;;;;;;;21.94;23.35;94021.75;5069025;28;20044;-83
2022/04/03 06:05:52;;;;;;;2.97;2.67;;;;;;;21.54;23.51;94030.09;5052951;28;20041;-84
2022/04/03 06:08:48;;;;;;;4.75;2.33;;;;;;;20.90;24.24;94035.44;5049515;28;20095;-83
2022/04/03 06:11:38;;;;;;;3.60;2.35;;;;;;;20.28;24.94;94035.81;5055757;28;20037;-86
2022/04/03 06:14:35;;;;;;;4.93;2.90;;;;;;;19.62;25.69;94027.97;5059198;28;20026;-86
2022/04/03 06:17:27;;;;;;;11.68;3.15;;;;;;;19.03;26.34;94045.88;5063400;28;20049;-86
2022/04/03 06:19:53;;;;;;;6.13;3.65;;;;;;;18.88;26.82;94051.53;5055994;28;20051;-87
2022/04/03 06:22:22;;;;;;;15.90;4.18;;;;;;;18.32;27.71;94042.31;5064662;28;20037;-88
2022/04/03 06:24:48;;;;;;;10.10;3.50;;;;;;;17.48;28.54;94042.75;5058293;28;20096;-85
2022/04/03 06:27:13;;;;;;;7.88;4.70;;;;;;;17.19;28.70;94050.94;5057434;28;20029;-86
2022/04/03 06:29:39;;;;;;;8.38;4.22;;;;;;;17.07;28.99;94058.50;5036656;28;20077;-86
2022/04/03 06:32:05;;;;;;;3.20;2.63;;;;;;;17.01;29.37;94054.41;5070597;28;20048;-86
2022/04/03 06:34:30;;;;;;;10.30;5.00;;;;;;;16.98;29.95;94060.25;5064590;28;20049;-81
2022/04/03 06:36:56;;;;;;;4.07;3.45;;;;;;;17.06;29.62;94056.94;5049352;28;20039;-84
2022/04/03 06:39:21;;;;;;;4.72;3.58;;;;;;;16.86;30.03;94067.81;5061707;28;20029;-85
2022/04/03 06:41:47;;;;;;;5.75;2.88;;;;;;;16.64;30.32;94061.31;5062633;28;20036;-83
2022/04/03 06:44:12;;;;;;;9.65;3.08;;;;;;;16.87;29.75;94075.41;5064507;28;20043;-85
2022/04/03 06:46:38;;;;;;;3.72;2.47;;;;;;;17.15;29.60;94070.97;5063251;28;20507;-84
2022/04/03 06:49:03;;;;;;;4.18;3.22;;;;;;;16.97;29.85;94063.94;5063973;28;20033;-83
2022/04/03 06:51:29;;;;;;;6.55;3.95;;;;;;;16.68;30.04;94078.06;5064016;28;20033;-84
2022/04/03 06:53:54;;;;;;;5.30;4.18;;;;;;;16.35;31.09;94077.25;5062821;28;20025;-81
2022/04/03 06:56:20;;;;;;;7.57;5.05;;;;;;;16.01;31.18;94080.09;5061709;28;20438;-83
2022/04/03 06:58:46;;;;;;;5.65;3.70;;;;;;;16.03;31.76;94088.44;5060311;28;20035;-82
2022/04/03 07:01:11;;;;;;;7.07;3.40;;;;;;;16.03;31.73;94103.41;5037085;28;20072;-82
2022/04/03 07:03:37;;;;;;;5.68;3.20;;;;;;;16.21;32.07;94095.53;5049494;28;20029;-80
2022/04/03 07:06:02;;;;;;;4.93;3.28;;;;;;;16.03;31.83;94101.56;5033700;28;20049;-80
2022/04/03 07:08:28;;;;;;;3.38;2.58;;;;;;;16.21;31.04;94111.28;5049278;28;20048;-80
2022/04/03 07:10:54;;;;;;;6.20;2.67;;;;;;;16.38;31.25;94099.50;5046229;28;20065;-81
2022/04/03 07:13:20;;;;;;;5.38;3.17;;;;;;;16.21;31.46;94113.91;5049561;28;20039;-80
2022/04/03 07:15:45;;;;;;;12.43;5.40;;;;;;;16.00;32.23;94119.72;5023329;28;20409;-79
2022/04/03 07:18:11;;;;;;;7.13;4.50;;;;;;;16.19;31.95;94121.28;5049093;28;20090;-80
2022/04/03 07:20:37;;;;;;;5.82;2.90;;;;;;;16.11;31.23;94132.41;5060294;28;20036;-79
2022/04/03 07:23:02;;;;;;;10.15;3.40;;;;;;;15.80;32.07;94126.78;5063750;28;20043;-80
2022/04/03 07:25:28;;;;;;;10.63;3.92;;;;;;;15.65;32.31;94141.88;5045166;28;20029;-79
2022/04/03 07:27:53;;;;;;;15.32;4.97;;;;;;;15.63;32.02;94129.06;5056343;28;20744;-78
2022/04/03 07:30:19;;;;;;;9.00;3.42;;;;;;;15.42;32.26;94135.53;5049901;28;20029;-79
2022/04/03 07:32:44;;;;;;;7.85;4.03;;;;;;;15.46;32.33;94132.09;5034390;28;20525;-79
2022/04/03 07:35:11;;;;;;;10.40;4.18;;;;;;;15.28;32.27;94140.66;5018218;28;20034;-80
2022/04/03 07:37:37;;;;;;;7.82;5.57;;;;;;;15.42;32.40;94130.28;5041305;28;20033;-80
2022/04/03 07:40:04;;;;;;;7.28;2.40;;;;;;;15.19;31.02;94131.84;5012315;28;20103;-80
2022/04/03 07:42:30;;;;;;;7.82;4.88;;;;;;;15.12;32.82;94131.38;5029197;28;20119;-80
2022/04/03 07:44:57;;;;;;;1.65;1.55;;;;;;;15.16;31.51;94148.13;5065404;28;20029;-80
2022/04/03 07:47:23;;;;;;;3.17;2.22;;;;;;;14.69;33.28;94144.31;5046339;28;20489;-79
2022/04/03 07:49:48;;;;;;;4.95;2.30;;;;;;;14.52;32.37;94144.69;5063458;28;20048;-79
2022/04/03 07:52:15;;;;;;;4.32;2.80;;;;;;;14.51;32.97;94150.19;5064499;28;20028;-79
2022/04/03 07:54:40;;;;;;;3.90;3.50;;;;;;;14.38;33.24;94141.88;5062870;28;20044;-79
2022/04/03 07:57:10;;;;;;;3.08;2.30;;;;;;;14.31;33.98;94154.44;5044903;28;20037;-82
2022/04/03 07:59:36;;;;;;;3.28;2.97;;;;;;;14.24;35.11;94155.81;5028581;28;20068;-80
2022/04/03 08:02:01;;;;;;;3.00;2.30;;;;;;;14.08;35.42;94155.09;5043211;28;20033;-81
2022/04/03 08:04:27;;;;;;;10.90;4.28;;;;;;;14.09;35.81;94162.69;5053611;28;20448;-79
2022/04/03 08:06:53;;;;;;;9.98;6.18;;;;;;;14.13;36.06;94163.69;5052007;28;20056;-85
2022/04/03 08:09:20;;;;;;;11.38;7.00;;;;;;;14.35;35.56;94160.72;5031248;28;20521;-80
2022/04/03 08:11:46;;;;;;;8.10;4.75;;;;;;;14.33;36.01;94152.38;5048574;28;20033;-86
2022/04/03 08:14:11;;;;;;;6.35;3.70;;;;;;;14.51;35.36;94158.81;5025784;28;20119;-85
2022/04/03 08:16:37;;;;;;;6.22;2.17;;;;;;;14.47;32.97;94162.22;5036069;28;20048;-82
2022/04/03 08:19:03;;;;;;;8.18;2.50;;;;;;;14.60;34.28;94156.41;5059198;28;20056;-83
2022/04/03 08:21:30;;;;;;;3.42;1.88;;;;;;;14.47;32.39;94151.78;5041742;28;20040;-86
2022/04/03 08:24:13;;;;;;;7.30;3.67;;;;;;;14.55;32.21;94143.34;5241749;22;20022;31
2022/04/03 08:26:39;;;;;;;2.92;2.08;;;;;;;14.16;32.16;94143.31;5014465;28;20117;-83
2022/04/03 08:29:04;;;;;;;13.90;3.60;;;;;;;13.69;33.07;94161.03;4996584;28;20084;-82
2022/04/03 08:31:33;;;;;;;5.15;2.80;;;;;;;13.34;35.03;94172.34;5001972;28;20099;-81
2022/04/03 08:33:59;;;;;;;1.98;1.83;;;;;;;13.25;34.59;94167.91;5006351;28;20049;-80
2022/04/03 08:36:24;;;;;;;3.15;2.58;;;;;;;13.13;35.49;94171.53;5027727;28;20041;-83
2022/04/03 08:41:38;;;;;;;4.45;3.22;;;;;;;13.80;35.00;94180.81;5129556;22;20062;-82
2022/04/03 08:44:07;;;;;;;3.22;3.03;;;;;;;14.01;33.87;94159.88;4996433;28;20031;-83
2022/04/03 08:46:33;;;;;;;8.80;3.20;;;;;;;14.02;33.85;94182.34;4957810;28;20113;-72
2022/04/03 08:49:00;;;;;;;4.35;3.85;;;;;;;13.88;34.75;94181.34;4976759;28;20030;-71
2022/04/03 08:51:27;;;;;;;9.05;3.72;;;;;;;14.04;35.17;94185.47;4989272;28;20045;-72
2022/04/03 08:53:52;;;;;;;5.50;2.25;;;;;;;14.23;33.64;94173.34;4973205;28;20062;-73
2022/04/03 08:56:18;;;;;;;1.73;1.63;;;;;;;14.18;34.03;94175.97;4974020;28;20042;-72
2022/04/03 08:58:43;;;;;;;3.83;3.20;;;;;;;14.13;33.94;94174.16;4972736;28;20037;-72
2022/04/03 09:01:09;;;;;;;5.90;3.80;;;;;;;13.79;34.41;94174.03;4972174;28;20046;-72
2022/04/03 09:03:34;;;;;;;4.75;3.53;;;;;;;13.58;34.02;94180.38;4985128;28;20554;-72
2022/04/03 09:06:16;;;;;;;3.17;2.30;;;;;;;13.55;34.13;94182.75;4971414;28;20034;-72
2022/04/03 09:08:42;;;;;;;6.10;2.53;;;;;;;13.61;34.67;94192.91;4975481;28;20035;-72
2022/04/03 09:11:07;;;;;;;2.38;2.17;;;;;;;13.75;33.94;94183.47;5007525;28;20560;-72
2022/04/03 09:13:34;;;;;;;3.63;1.98;;;;;;;13.94;32.85;94185.50;4972134;28;20450;-72
2022/04/03 09:15:59;;;;;;;5.75;2.25;;;;;;;13.91;33.83;94191.25;4987573;28;20219;-70
2022/04/03 09:18:47;;;;;;;2.58;1.80;;;;;;;13.68;34.96;94208.31;4972434;28;20039;-73
2022/04/03 09:21:23;;;;;;;2.30;2.10;;;;;;;13.30;37.76;94210.47;4972446;28;20102;-72
2022/04/03 09:24:04;;;;;;;3.20;2.90;;;;;;;12.95;39.46;94226.09;4972295;28;20062;-71
2022/04/03 09:26:30;;;;;;;5.05;2.72;;;;;;;12.76;40.28;94218.00;4972359;28;20222;-70
2022/04/03 09:29:15;;;;;;;2.40;2.20;;;;;;;12.28;42.36;94222.59;4971389;28;20514;-72
2022/04/03 09:31:41;;;;;;;3.20;2.75;;;;;;;11.98;44.38;94229.25;4983590;28;20038;-73
2022/04/03 09:34:12;;;;;;;3.42;2.53;;;;;;;11.76;45.56;94236.44;4987630;28;20039;-72
2022/04/03 09:36:39;;;;;;;2.85;1.60;;;;;;;11.50;43.99;94221.69;4971590;28;20049;-73
2022/04/03 09:39:14;;;;;;;7.28;1.42;;;;;;;11.48;46.26;94228.97;4971492;28;20051;-73
2022/04/03 09:41:55;;;;;;;1.40;1.30;;;;;;;11.74;46.35;94220.28;4968426;28;20027;-73
2022/04/03 09:44:33;;;;;;;5.32;3.38;;;;;;;11.92;45.16;94225.06;4954138;28;20040;-72
2022/04/03 09:47:20;;;;;;;3.78;3.30;;;;;;;12.28;43.39;94222.59;4959868;28;20026;-72
2022/04/03 09:50:05;;;;;;;2.75;2.00;;;;;;;12.42;42.99;94218.47;5005655;28;20394;-72
2022/04/03 09:52:40;;;;;;;4.30;2.42;;;;;;;12.52;41.54;94222.91;4970505;28;20042;-71
2022/04/03 09:55:16;;;;;;;11.77;5.50;;;;;;;12.63;41.05;94227.88;4972959;28;20409;-72
2022/04/03 09:57:42;;;;;;;2.83;2.40;;;;;;;12.68;39.14;94210.66;4977100;28;20107;-72
2022/04/03 10:00:08;;;;;;;2.35;1.60;;;;;;;12.72;39.31;94222.19;5008013;28;20125;-72
2022/04/03 10:02:34;;;;;;;6.70;3.67;;;;;;;12.89;37.36;94218.28;4971616;28;20157;-72
2022/04/03 10:04:59;;;;;;;7.53;2.53;;;;;;;12.97;40.21;94232.63;4987262;28;20529;-71
2022/04/03 10:07:25;;;;;;;2.53;1.67;;;;;;;12.95;39.49;94239.94;4969810;28;20037;-72
2022/04/03 10:09:51;;;;;;;2.85;1.90;;;;;;;12.94;38.91;94240.97;4968942;28;20039;-71
2022/04/03 10:12:18;;;;;;;1.67;1.58;;;;;;;12.81;39.34;94242.25;4972675;28;20723;-72
2022/04/03 10:14:45;;;;;;;1.70;1.60;;;;;;;12.69;38.74;94243.53;4987552;28;20184;-72
2022/04/03 10:17:11;;;;;;;4.10;2.10;;;;;;;12.73;39.01;94260.28;4955145;28;20050;-70
2022/04/03 10:19:38;;;;;;;1.90;1.80;;;;;;;12.63;39.26;94250.59;4989943;28;20030;-83
2022/04/03 10:22:03;;;;;;;2.17;1.73;;;;;;;12.66;38.75;94244.06;4984602;28;20041;-85
2022/04/03 10:24:34;;;;;;;2.35;2.17;;;;;;;12.69;38.98;94256.59;4998960;28;20027;-83
2022/04/03 10:27:04;;;;;;;2.95;2.17;;;;;;;12.63;40.61;94259.19;4984076;28;20066;-81
2022/04/03 10:29:31;;;;;;;3.17;2.33;;;;;;;12.67;38.78;94250.84;4982087;28;20043;-81
2022/04/03 10:31:58;;;;;;;1.83;1.48;;;;;;;12.59;39.53;94244.31;4964296;28;20027;-81
2022/04/03 10:34:25;;;;;;;2.08;1.80;;;;;;;12.51;39.80;94250.81;4980009;28;20041;-81
2022/04/03 10:36:51;;;;;;;2.45;2.25;;;;;;;12.54;39.79;94231.28;4979611;28;20042;-81
2022/04/03 10:39:27;;;;;;;2.08;1.85;;;;;;;12.68;39.82;94247.19;4982353;28;20034;-82
2022/04/03 10:42:16;;;;;;;3.00;1.83;;;;;;;12.69;39.51;94254.78;5016477;28;20164;-83
2022/04/03 10:44:41;;;;;;;3.30;2.17;;;;;;;12.50;39.31;94236.19;4986563;28;20039;-82
2022/04/03 10:47:16;;;;;;;6.10;3.35;;;;;;;12.45;39.58;94241.41;5002735;28;20517;-81
2022/04/03 10:49:47;;;;;;;4.07;2.35;;;;;;;12.17;40.09;94263.47;4986939;28;20039;-81
2022/04/03 10:52:25;;;;;;;14.82;4.78;;;;;;;12.16;40.50;94271.53;4980087;28;20145;-81
2022/04/03 10:54:53;;;;;;;4.15;2.20;;;;;;;11.86;42.47;94261.75;4976928;28;20483;-70
2022/04/03 10:57:57;;;;;;;3.20;2.10;;;;;;;11.90;43.28;94250.59;4972080;28;20181;-71
2022/04/03 11:00:23;;;;;;;6.07;2.50;;;;;;;11.80;43.41;94270.59;4971235;28;20042;-71
2022/04/03 11:02:57;;;;;;;2.15;1.75;;;;;;;11.78;42.72;94270.81;4971895;28;20046;-69
2022/04/03 11:05:29;;;;;;;4.00;3.60;;;;;;;11.88;45.33;94262.31;4996619;28;20046;-81
2022/04/03 11:08:15;;;;;;;2.47;2.28;;;;;;;11.92;43.96;94271.97;4976963;28;20035;-81
2022/04/03 11:10:54;;;;;;;2.40;2.17;;;;;;;12.04;42.95;94269.16;4939977;29;20051;-80
2022/04/03 11:13:32;;;;;;;2.40;2.15;;;;;;;12.09;42.26;94252.75;4970908;28;20038;-81
2022/04/03 11:16:04;;;;;;;2.70;2.00;;;;;;;12.13;41.68;94266.84;4978110;28;20031;-80
2022/04/03 11:18:50;;;;;;;5.63;2.50;;;;;;;12.03;43.02;94257.94;4985066;28;20046;-81
2022/04/03 11:21:37;;;;;;;4.05;2.28;;;;;;;11.97;41.33;94248.53;4988220;28;20098;-81
2022/04/03 11:24:07;;;;;;;2.53;2.38;;;;;;;11.75;42.81;94228.88;5021676;28;20101;-82
2022/04/03 11:26:33;;;;;;;2.50;2.15;;;;;;;11.48;42.86;94249.78;5006340;28;20039;-81
2022/04/03 11:28:59;;;;;;;8.50;2.78;;;;;;;11.41;42.90;94266.41;4985528;28;20139;-82
2022/04/03 11:31:24;;;;;;;2.88;2.58;;;;;;;11.40;43.90;94264.06;4985320;28;20034;-81
2022/04/03 11:33:50;;;;;;;2.72;2.50;;;;;;;11.43;44.00;94273.97;4984659;28;20138;-80
2022/04/03 11:36:23;;;;;;;2.50;2.30;;;;;;;11.38;43.48;94266.09;4952437;28;20098;-82
2022/04/03 11:38:49;;;;;;;5.32;2.42;;;;;;;11.13;43.93;94266.72;4979026;28;20039;-82
2022/04/03 11:41:35;;;;;;;9.82;2.78;;;;;;;11.11;44.17;94272.16;4979307;28;20031;-82
2022/04/03 11:44:04;;;;;;;3.00;2.70;;;;;;;11.07;44.98;94283.31;4992653;28;20049;-82
2022/04/03 11:46:32;;;;;;;3.28;3.03;;;;;;;11.06;45.77;94299.94;4979595;28;20520;-82
2022/04/03 11:51:32;;;;;;;2.80;2.53;;;;;;;10.80;46.44;94315.31;5299926;22;20046;-82
2022/04/03 11:53:59;;;;;;;5.20;3.10;;;;;;;10.63;47.87;94319.81;5010046;28;20084;-82
2022/04/03 11:56:26;;;;;;;3.10;2.90;;;;;;;10.51;48.62;94330.34;5004323;28;20522;-82
2022/04/03 11:58:56;;;;;;;3.10;2.90;;;;;;;10.14;50.54;94335.34;4983903;28;20434;-83
2022/04/03 12:01:33;;;;;;;5.22;3.90;;;;;;;9.94;53.15;94342.84;4984380;28;20696;-82
2022/04/03 12:04:05;;;;;;;4.18;3.78;;;;;;;9.81;53.59;94338.78;5006723;28;20072;-83
2022/04/03 12:06:31;;;;;;;3.83;3.53;;;;;;;9.69;54.98;94332.88;4988652;28;20043;-86
2022/04/03 12:08:57;;;;;;;6.78;4.28;;;;;;;9.62;55.92;94346.03;4990137;28;20038;-85
2022/04/03 12:11:27;;;;;;;5.22;4.45;;;;;;;9.53;56.08;94339.66;5005837;28;20034;-85
2022/04/03 12:13:59;;;;;;;5.07;4.55;;;;;;;9.63;57.42;94332.03;4986925;28;20026;-90
2022/04/03 12:16:26;;;;;;;6.70;4.68;;;;;;;9.98;59.00;94335.38;4985089;28;20039;-87
2022/04/03 12:18:52;;;;;;;9.32;5.25;;;;;;;10.41;57.36;94335.44;4968343;28;20099;-86
2022/04/03 12:21:18;;;;;;;5.20;3.78;;;;;;;10.73;56.55;94339.94;4980583;28;20043;-86
2022/04/03 12:24:03;;;;;;;5.65;3.78;;;;;;;11.05;54.99;94329.59;4975127;28;20050;-87
2022/04/03 12:26:29;;;;;;;3.88;3.45;;;;;;;11.25;55.58;94335.00;4997141;28;20035;-83
2022/04/03 12:28:58;;;;;;;6.32;4.55;;;;;;;11.41;55.65;94328.13;4968649;28;20114;-85
2022/04/03 12:31:30;;;;;;;4.07;3.78;;;;;;;11.53;53.50;94339.13;4985329;28;20031;-84
2022/04/03 12:34:09;;;;;;;;;;;;;;;11.69;54.75;94337.41;5018325;28;20030;-87
2022/04/03 12:36:40;;;;;;;5.40;3.65;;;;;;;11.73;52.23;94336.69;4984408;28;19956;-84
2022/04/03 12:39:29;;;;;;;4.07;3.70;;;;;;;11.70;51.69;94331.19;4985431;28;20076;-86
2022/04/03 12:41:57;;;;;;;4.88;3.55;;;;;;;11.71;49.97;94322.31;4997671;28;20065;-85
2022/04/03 12:44:22;;;;;;;3.55;3.25;;;;;;;11.42;49.68;94327.88;4983341;28;20069;-86
2022/04/03 12:46:48;;;;;;;3.97;3.63;;;;;;;11.14;50.01;94328.13;4999632;28;20026;-88
2022/04/03 12:49:17;;;;;;;4.65;4.20;;;;;;;10.99;51.29;94339.19;4983412;28;20124;-77
2022/04/03 12:51:46;;;;;;;3.13;2.92;;;;;;;11.15;51.49;94334.13;4993314;28;20057;-77
2022/04/03 12:54:12;;;;;;;6.03;3.75;;;;;;;11.22;48.81;94329.50;4977106;28;20038;-77
2022/04/03 12:59:22;;;;;;;7.65;6.65;;;;;;;11.43;49.32;94331.25;4975950;28;20042;-77
2022/04/03 13:01:52;;;;;;;10.23;6.40;;;;;;;11.62;49.61;94340.25;4972949;28;20030;-76
2022/04/03 13:04:30;;;;;;;6.82;5.35;;;;;;;11.82;48.68;94346.66;4976232;28;20042;-76
2022/04/03 13:06:56;;;;;;;4.35;4.05;;;;;;;11.92;48.03;94331.88;4992712;28;20034;-76
2022/04/03 13:09:22;;;;;;;4.85;4.15;;;;;;;11.88;46.61;94333.44;4993116;28;20414;-74
2022/04/03 13:11:52;;;;;;;7.43;5.13;;;;;;;11.72;46.72;94329.13;4976030;28;20494;-75
2022/04/03 13:14:28;;;;;;;4.65;4.25;;;;;;;11.59;47.65;94326.94;4972157;28;20094;-76
2022/04/03 13:17:01;;;;;;;6.32;4.95;;;;;;;11.42;48.44;94327.88;4972147;28;20047;-76
2022/04/03 13:19:28;;;;;;;10.55;4.38;;;;;;;11.28;48.32;94331.91;4940987;28;20048;-75
2022/04/03 13:21:57;;;;;;;5.65;5.07;;;;;;;11.37;48.74;94321.81;4998617;28;20122;-76
2022/04/03 13:24:22;;;;;;;9.40;5.65;;;;;;;11.48;48.60;94312.28;4991859;28;20121;-77
2022/04/03 13:26:48;;;;;;;5.82;5.03;;;;;;;11.32;47.75;94330.38;5008204;28;20185;-76
2022/04/03 13:29:15;;;;;;;8.20;5.10;;;;;;;11.33;49.21;94331.16;4991626;28;20039;-76
2022/04/03 13:31:40;;;;;;;8.88;4.63;;;;;;;11.29;48.56;94337.91;5007477;28;20046;-76
2022/04/03 13:34:12;;;;;;;10.60;3.92;;;;;;;11.19;49.94;94351.59;4993203;28;20027;-76
2022/04/03 13:36:38;;;;;;;5.20;4.05;;;;;;;11.22;48.34;94350.31;4991476;28;20041;-75
2022/04/03 13:39:05;;;;;;;11.25;3.63;;;;;;;11.09;47.46;94346.31;4990465;28;20042;-77
2022/04/03 13:41:33;;;;;;;5.93;4.00;;;;;;;10.98;48.36;94347.22;4992421;28;20045;-74